sensor_id;sensor_type;location;lat;lon;timestamp;pressure;altitude;pressure_sealevel;temperature;humidity
19890;BME280;10107;51.198;6.824;2023-05-12T00:03:50;-21667.16;;;13.32;100.00
19890;BME280;10107;51.198;6.824;2023-05-12T00:07:53;-21666.88;;;13.31;100.00
19890;BME280;10107;51.198;6.824;2023-05-12T00:11:55;-21667.41;;;13.33;100.00
19890;BME280;10107;51.198;6.824;2023-05-12T00:15:58;-21667.69;;;13.34;100.00
19890;BME280;10107;51.198;6.824;2023-05-12T00:19:59;-21667.28;;;13.32;100.00
19890;BME280;10107;51.198;6.824;2023-05-12T00:24:03;-21666.22;;;13.28;100.00
19890;BME280;10107;51.198;6.824;2023-05-12T00:28:05;-21665.84;;;13.26;100.00
19890;BME280;10107;51.198;6.824;2023-05-12T00:32:08;-21665.16;;;13.24;100.00
19890;BME280;10107;51.198;6.824;2023-05-12T00:36:10;-21665.03;;;13.23;100.00
19890;BME280;10107;51.198;6.824;2023-05-12T00:40:12;-21664.91;;;13.23;100.00
19890;BME280;10107;51.198;6.824;2023-05-12T00:44:14;-21665.56;;;13.25;100.00
19890;BME280;10107;51.198;6.824;2023-05-12T00:48:19;-21665.84;;;13.26;100.00
19890;BME280;10107;51.198;6.824;2023-05-12T00:52:21;-21664.78;;;13.22;100.00
19890;BME280;10107;51.198;6.824;2023-05-12T00:56:23;-21664.38;;;13.21;100.00
19890;BME280;10107;51.198;6.824;2023-05-12T01:00:26;-21663.84;;;13.19;100.00
19890;BME280;10107;51.198;6.824;2023-05-12T01:04:29;-21664.38;;;13.21;100.00
19890;BME280;10107;51.198;6.824;2023-05-12T01:08:32;-21664.13;;;13.20;100.00
19890;BME280;10107;51.198;6.824;2023-05-12T01:12:35;-21664.38;;;13.21;100.00
19890;BME280;10107;51.198;6.824;2023-05-12T01:16:41;-21664.13;;;13.20;100.00
19890;BME280;10107;51.198;6.824;2023-05-12T01:20:47;-21662.94;;;13.15;100.00
19890;BME280;10107;51.198;6.824;2023-05-12T01:24:54;-21662.78;;;13.15;100.00
19890;BME280;10107;51.198;6.824;2023-05-12T01:29:01;-21661.59;;;13.10;100.00
19890;BME280;10107;51.198;6.824;2023-05-12T01:33:04;-21661.59;;;13.10;100.00
19890;BME280;10107;51.198;6.824;2023-05-12T01:37:06;-21660.41;;;13.05;100.00
19890;BME280;10107;51.198;6.824;2023-05-12T01:41:08;-21660.69;;;13.06;100.00
19890;BME280;10107;51.198;6.824;2023-05-12T01:45:11;-21658.31;;;12.97;100.00
19890;BME280;10107;51.198;6.824;2023-05-12T01:49:13;-21654.88;;;12.84;100.00
19890;BME280;10107;51.198;6.824;2023-05-12T01:53:15;-21653.16;;;12.77;100.00
19890;BME280;10107;51.198;6.824;2023-05-12T01:57:17;-21652.09;;;12.73;100.00
19890;BME280;10107;51.198;6.824;2023-05-12T02:01:20;-21650.91;;;12.68;100.00
19890;BME280;10107;51.198;6.824;2023-05-12T02:05:24;-21648.94;;;12.61;100.00
19890;BME280;10107;51.198;6.824;2023-05-12T02:09:26;-21648.53;;;12.59;100.00
19890;BME280;10107;51.198;6.824;2023-05-12T02:13:33;-21648.69;;;12.60;100.00
19890;BME280;10107;51.198;6.824;2023-05-12T02:17:37;-21649.34;;;12.62;100.00
19890;BME280;10107;51.198;6.824;2023-05-12T02:21:40;-21648.81;;;12.60;100.00
19890;BME280;10107;51.198;6.824;2023-05-12T02:25:41;-21648.81;;;12.60;100.00
19890;BME280;10107;51.198;6.824;2023-05-12T02:29:43;-21648.53;;;12.59;100.00
19890;BME280;10107;51.198;6.824;2023-05-12T02:33:46;-21648.16;;;12.58;100.00
19890;BME280;10107;51.198;6.824;2023-05-12T02:37:50;-21647.75;;;12.56;100.00
19890;BME280;10107;51.198;6.824;2023-05-12T02:41:52;-21647.09;;;12.54;100.00
19890;BME280;10107;51.198;6.824;2023-05-12T02:45:54;-21647.50;;;12.55;100.00
19890;BME280;10107;51.198;6.824;2023-05-12T02:49:57;-21649.06;;;12.61;100.00
19890;BME280;10107;51.198;6.824;2023-05-12T02:53:59;-21650.00;;;12.65;100.00
19890;BME280;10107;51.198;6.824;2023-05-12T02:58:01;-21648.81;;;12.60;100.00
19890;BME280;10107;51.198;6.824;2023-05-12T03:02:03;-21649.47;;;12.63;100.00
19890;BME280;10107;51.198;6.824;2023-05-12T03:06:07;-21649.22;;;12.62;100.00
19890;BME280;10107;51.198;6.824;2023-05-12T03:10:09;-21649.47;;;12.63;100.00
19890;BME280;10107;51.198;6.824;2023-05-12T03:14:11;-21649.47;;;12.63;100.00
19890;BME280;10107;51.198;6.824;2023-05-12T03:18:13;-21648.28;;;12.58;100.00
19890;BME280;10107;51.198;6.824;2023-05-12T03:22:16;-21647.88;;;12.57;100.00
19890;BME280;10107;51.198;6.824;2023-05-12T03:26:18;-21648.28;;;12.58;100.00
19890;BME280;10107;51.198;6.824;2023-05-12T03:30:20;-21649.47;;;12.63;100.00
19890;BME280;10107;51.198;6.824;2023-05-12T03:34:21;-21650.13;;;12.65;100.00
19890;BME280;10107;51.198;6.824;2023-05-12T03:38:25;-21651.06;;;12.69;100.00
19890;BME280;10107;51.198;6.824;2023-05-12T03:42:27;-21651.06;;;12.69;100.00
19890;BME280;10107;51.198;6.824;2023-05-12T03:46:30;-21651.84;;;12.72;100.00
19890;BME280;10107;51.198;6.824;2023-05-12T03:50:33;-21652.50;;;12.75;100.00
19890;BME280;10107;51.198;6.824;2023-05-12T03:54:37;-21652.38;;;12.74;100.00
19890;BME280;10107;51.198;6.824;2023-05-12T03:58:39;-21652.50;;;12.75;100.00
19890;BME280;10107;51.198;6.824;2023-05-12T04:02:41;-21652.91;;;12.76;100.00
19890;BME280;10107;51.198;6.824;2023-05-12T04:06:43;-21654.09;;;12.81;100.00
19890;BME280;10107;51.198;6.824;2023-05-12T04:10:46;-21654.09;;;12.81;100.00
19890;BME280;10107;51.198;6.824;2023-05-12T04:14:48;-21653.81;;;12.80;100.00
19890;BME280;10107;51.198;6.824;2023-05-12T04:18:50;-21653.69;;;12.79;100.00
19890;BME280;10107;51.198;6.824;2023-05-12T04:22:52;-21654.22;;;12.81;100.00
19890;BME280;10107;51.198;6.824;2023-05-12T04:26:56;-21654.22;;;12.81;100.00
19890;BME280;10107;51.198;6.824;2023-05-12T04:31:01;-21654.09;;;12.81;100.00
19890;BME280;10107;51.198;6.824;2023-05-12T04:35:04;-21654.34;;;12.82;100.00
19890;BME280;10107;51.198;6.824;2023-05-12T04:39:06;-21654.63;;;12.83;100.00
19890;BME280;10107;51.198;6.824;2023-05-12T04:43:10;-21654.22;;;12.81;100.00
19890;BME280;10107;51.198;6.824;2023-05-12T04:47:12;-21653.69;;;12.79;100.00
19890;BME280;10107;51.198;6.824;2023-05-12T04:51:15;-21653.44;;;12.78;100.00
19890;BME280;10107;51.198;6.824;2023-05-12T04:55:20;-21652.63;;;12.75;100.00
19890;BME280;10107;51.198;6.824;2023-05-12T04:59:24;-21654.75;;;12.83;100.00
19890;BME280;10107;51.198;6.824;2023-05-12T05:03:27;-21656.47;;;12.90;100.00
19890;BME280;10107;51.198;6.824;2023-05-12T05:07:29;-21657.25;;;12.93;100.00
19890;BME280;10107;51.198;6.824;2023-05-12T05:11:32;-21658.56;;;12.98;100.00
19890;BME280;10107;51.198;6.824;2023-05-12T05:15:35;-21658.31;;;12.97;100.00
19890;BME280;10107;51.198;6.824;2023-05-12T05:19:36;-21659.75;;;13.03;100.00
19890;BME280;10107;51.198;6.824;2023-05-12T05:23:39;-21660.69;;;13.06;100.00
19890;BME280;10107;51.198;6.824;2023-05-12T05:27:41;-21661.34;;;13.09;100.00
19890;BME280;10107;51.198;6.824;2023-05-12T05:31:44;-21662.66;;;13.14;100.00
19890;BME280;10107;51.198;6.824;2023-05-12T05:35:46;-21662.78;;;13.15;100.00
19890;BME280;10107;51.198;6.824;2023-05-12T05:39:49;-21666.34;;;13.28;100.00
19890;BME280;10107;51.198;6.824;2023-05-12T05:43:50;-21668.75;;;13.38;100.00
19890;BME280;10107;51.198;6.824;2023-05-12T05:47:53;-21672.16;;;13.51;100.00
19890;BME280;10107;51.198;6.824;2023-05-12T05:51:55;-21674.66;;;13.61;100.00
19890;BME280;10107;51.198;6.824;2023-05-12T05:55:58;-21680.72;;;13.84;100.00
19890;BME280;10107;51.198;6.824;2023-05-12T06:00:00;-21687.31;;;14.10;100.00
19890;BME280;10107;51.198;6.824;2023-05-12T06:04:15;-21693.63;;;14.35;100.00
19890;BME280;10107;51.198;6.824;2023-05-12T06:08:17;-21700.09;;;14.60;100.00
19890;BME280;10107;51.198;6.824;2023-05-12T06:12:19;-21704.03;;;14.75;100.00
19890;BME280;10107;51.198;6.824;2023-05-12T06:16:21;-21704.69;;;14.78;100.00
19890;BME280;10107;51.198;6.824;2023-05-12T06:20:24;-21701.00;;;14.63;100.00
19890;BME280;10107;51.198;6.824;2023-05-12T06:24:25;-21697.84;;;14.51;100.00
19890;BME280;10107;51.198;6.824;2023-05-12T06:28:27;-21695.88;;;14.43;100.00
19890;BME280;10107;51.198;6.824;2023-05-12T06:32:29;-21692.97;;;14.32;100.00
19890;BME280;10107;51.198;6.824;2023-05-12T06:36:32;-21690.47;;;14.22;100.00
19890;BME280;10107;51.198;6.824;2023-05-12T06:40:34;-21690.88;;;14.24;100.00
19890;BME280;10107;51.198;6.824;2023-05-12T06:44:36;-21695.09;;;14.40;100.00
19890;BME280;10107;51.198;6.824;2023-05-12T06:48:37;-21701.28;;;14.64;100.00
19890;BME280;10107;51.198;6.824;2023-05-12T06:52:40;-21714.28;;;15.15;100.00
19890;BME280;10107;51.198;6.824;2023-05-12T06:56:42;-21725.06;;;15.57;100.00
19890;BME280;10107;51.198;6.824;2023-05-12T07:00:44;-21731.78;;;15.83;100.00
19890;BME280;10107;51.198;6.824;2023-05-12T07:04:45;-21735.06;;;15.96;100.00
19890;BME280;10107;51.198;6.824;2023-05-12T07:08:48;-21739.25;;;16.13;100.00
19890;BME280;10107;51.198;6.824;2023-05-12T07:12:50;-21746.34;;;16.40;100.00
19890;BME280;10107;51.198;6.824;2023-05-12T07:16:52;-21754.88;;;16.74;100.00
19890;BME280;10107;51.198;6.824;2023-05-12T07:20:53;-21750.28;;;16.56;100.00
19890;BME280;10107;51.198;6.824;2023-05-12T07:24:56;-21747.91;;;16.47;100.00
19890;BME280;10107;51.198;6.824;2023-05-12T07:28:59;-21748.44;;;16.49;100.00
19890;BME280;10107;51.198;6.824;2023-05-12T07:33:01;-21750.41;;;16.56;100.00
19890;BME280;10107;51.198;6.824;2023-05-12T07:37:03;-21756.84;;;16.81;100.00
19890;BME280;10107;51.198;6.824;2023-05-12T07:41:07;-21768.91;;;17.29;100.00
19890;BME280;10107;51.198;6.824;2023-05-12T07:45:09;-21783.31;;;17.85;100.00
19890;BME280;10107;51.198;6.824;2023-05-12T07:49:11;-21779.50;;;17.70;100.00
19890;BME280;10107;51.198;6.824;2023-05-12T07:53:13;-21770.59;;;17.35;100.00
19890;BME280;10107;51.198;6.824;2023-05-12T07:57:16;-21764.44;;;17.11;100.00
19890;BME280;10107;51.198;6.824;2023-05-12T08:01:17;-21755.25;;;16.75;100.00
19890;BME280;10107;51.198;6.824;2023-05-12T08:05:19;-21752.38;;;16.64;100.00
19890;BME280;10107;51.198;6.824;2023-05-12T08:09:21;-21749.50;;;16.53;100.00
19890;BME280;10107;51.198;6.824;2023-05-12T08:13:24;-21747.66;;;16.46;100.00
19890;BME280;10107;51.198;6.824;2023-05-12T08:17:28;-21747.38;;;16.44;100.00
19890;BME280;10107;51.198;6.824;2023-05-12T08:21:30;-21746.88;;;16.42;100.00
19890;BME280;10107;51.198;6.824;2023-05-12T08:25:32;-21748.19;;;16.48;100.00
19890;BME280;10107;51.198;6.824;2023-05-12T08:29:35;-21749.22;;;16.52;100.00
19890;BME280;10107;51.198;6.824;2023-05-12T08:33:37;-21749.22;;;16.52;100.00
19890;BME280;10107;51.198;6.824;2023-05-12T08:37:39;-21748.56;;;16.49;100.00
19890;BME280;10107;51.198;6.824;2023-05-12T08:41:42;-21743.06;;;16.28;100.00
19890;BME280;10107;51.198;6.824;2023-05-12T08:45:46;-21741.22;;;16.20;100.00
19890;BME280;10107;51.198;6.824;2023-05-12T08:49:57;-21746.75;;;16.42;100.00
19890;BME280;10107;51.198;6.824;2023-05-12T08:54:00;-21754.88;;;16.74;100.00
19890;BME280;10107;51.198;6.824;2023-05-12T08:58:04;-21763.78;;;17.09;100.00
19890;BME280;10107;51.198;6.824;2023-05-12T09:02:08;-21777.28;;;17.61;100.00
19890;BME280;10107;51.198;6.824;2023-05-12T09:06:11;-21784.34;;;17.89;100.00
19890;BME280;10107;51.198;6.824;2023-05-12T09:10:15;-21786.69;;;17.98;100.00
19890;BME280;10107;51.198;6.824;2023-05-12T09:14:17;-21789.97;;;18.11;99.36
19890;BME280;10107;51.198;6.824;2023-05-12T09:18:20;-21798.47;;;18.45;100.00
19890;BME280;10107;51.198;6.824;2023-05-12T09:22:27;-21805.00;;;18.70;94.87
19890;BME280;10107;51.198;6.824;2023-05-12T09:26:29;-21812.06;;;18.98;91.11
19890;BME280;10107;51.198;6.824;2023-05-12T09:30:31;-21821.59;;;19.35;89.42
19890;BME280;10107;51.198;6.824;2023-05-12T09:34:39;-21835.28;;;19.89;85.05
19890;BME280;10107;51.198;6.824;2023-05-12T09:38:40;-21849.38;;;20.45;81.13
19890;BME280;10107;51.198;6.824;2023-05-12T09:42:42;-21860.31;;;20.88;77.00
19890;BME280;10107;51.198;6.824;2023-05-12T09:46:44;-21879.69;;;21.64;73.93
19890;BME280;10107;51.198;6.824;2023-05-12T09:50:48;-21883.47;;;21.79;71.34
19890;BME280;10107;51.198;6.824;2023-05-12T09:54:50;-21898.53;;;22.39;69.81
19890;BME280;10107;51.198;6.824;2023-05-12T09:58:52;-21975.03;;;25.42;58.79
19890;BME280;10107;51.198;6.824;2023-05-12T10:02:58;-22045.81;;;28.24;50.17
19890;BME280;10107;51.198;6.824;2023-05-12T10:07:01;-22070.56;;;29.23;42.52
19890;BME280;10107;51.198;6.824;2023-05-12T10:11:04;-22064.69;;;28.99;44.49
19890;BME280;10107;51.198;6.824;2023-05-12T10:15:08;-22017.69;;;27.12;42.76
19890;BME280;10107;51.198;6.824;2023-05-12T10:19:12;-21990.63;;;26.04;45.51
19890;BME280;10107;51.198;6.824;2023-05-12T10:23:15;-21997.09;;;26.30;45.38
19890;BME280;10107;51.198;6.824;2023-05-12T10:27:18;-21970.25;;;25.23;46.20
19890;BME280;10107;51.198;6.824;2023-05-12T10:31:21;-21954.75;;;24.61;49.30
19890;BME280;10107;51.198;6.824;2023-05-12T10:35:30;-21944.03;;;24.19;48.32
19890;BME280;10107;51.198;6.824;2023-05-12T10:39:34;-21962.75;;;24.93;47.08
19890;BME280;10107;51.198;6.824;2023-05-12T10:43:38;-21956.31;;;24.67;46.51
19890;BME280;10107;51.198;6.824;2023-05-12T10:47:41;-21935.47;;;23.85;46.24
19890;BME280;10107;51.198;6.824;2023-05-12T10:51:47;-21939.75;;;24.02;47.38
19890;BME280;10107;51.198;6.824;2023-05-12T10:55:54;-21947.50;;;24.33;44.69
19890;BME280;10107;51.198;6.824;2023-05-12T10:59:57;-21955.13;;;24.63;43.86
19890;BME280;10107;51.198;6.824;2023-05-12T11:04:09;-21971.41;;;25.27;42.78
19890;BME280;10107;51.198;6.824;2023-05-12T11:08:10;-21962.13;;;24.90;42.53
19890;BME280;10107;51.198;6.824;2023-05-12T11:12:14;-21934.31;;;23.80;46.65
19890;BME280;10107;51.198;6.824;2023-05-12T11:16:16;-21900.88;;;22.48;51.03
19890;BME280;10107;51.198;6.824;2023-05-12T11:20:21;-21866.44;;;21.12;60.34
19890;BME280;10107;51.198;6.824;2023-05-12T11:24:23;-21856.53;;;20.73;67.80
19890;BME280;10107;51.198;6.824;2023-05-12T11:28:27;-21866.81;;;21.13;74.79
19890;BME280;10107;51.198;6.824;2023-05-12T11:32:28;-21904.88;;;22.64;65.61
19890;BME280;10107;51.198;6.824;2023-05-12T11:36:35;-21951.66;;;24.49;54.64
19890;BME280;10107;51.198;6.824;2023-05-12T11:40:39;-21950.34;;;24.44;49.48
19890;BME280;10107;51.198;6.824;2023-05-12T11:44:47;-21982.13;;;25.70;47.53
19890;BME280;10107;51.198;6.824;2023-05-12T11:48:53;-22054.16;;;28.57;40.73
19890;BME280;10107;51.198;6.824;2023-05-12T11:52:55;-22041.72;;;28.08;43.51
19890;BME280;10107;51.198;6.824;2023-05-12T11:56:57;-22032.72;;;27.72;45.06
19890;BME280;10107;51.198;6.824;2023-05-12T12:01:09;-21974.66;;;25.40;49.66
19890;BME280;10107;51.198;6.824;2023-05-12T12:05:15;-21928.09;;;23.56;55.33
19890;BME280;10107;51.198;6.824;2023-05-12T12:09:17;-21908.13;;;22.77;59.51
19890;BME280;10107;51.198;6.824;2023-05-12T12:13:19;-21919.81;;;23.23;58.98
19890;BME280;10107;51.198;6.824;2023-05-12T12:17:22;-21931.59;;;23.69;56.13
19890;BME280;10107;51.198;6.824;2023-05-12T12:21:29;-21933.00;;;23.75;54.07
19890;BME280;10107;51.198;6.824;2023-05-12T12:25:31;-21927.84;;;23.55;55.41
19890;BME280;10107;51.198;6.824;2023-05-12T12:29:33;-21942.72;;;24.14;54.37
19890;BME280;10107;51.198;6.824;2023-05-12T12:33:36;-21947.63;;;24.33;53.36
19890;BME280;10107;51.198;6.824;2023-05-12T12:37:38;-21935.22;;;23.84;54.43
19890;BME280;10107;51.198;6.824;2023-05-12T12:41:40;-21924.34;;;23.41;56.15
19890;BME280;10107;51.198;6.824;2023-05-12T12:45:42;-21923.03;;;23.36;54.60
19890;BME280;10107;51.198;6.824;2023-05-12T12:49:45;-21929.66;;;23.62;54.66
19890;BME280;10107;51.198;6.824;2023-05-12T12:53:47;-21941.81;;;24.10;55.53
19890;BME280;10107;51.198;6.824;2023-05-12T12:57:49;-21937.69;;;23.94;55.38
19890;BME280;10107;51.198;6.824;2023-05-12T13:01:51;-21920.59;;;23.26;58.21
19890;BME280;10107;51.198;6.824;2023-05-12T13:05:54;-21901.13;;;22.49;59.31
19890;BME280;10107;51.198;6.824;2023-05-12T13:09:55;-21889.19;;;22.02;62.31
19890;BME280;10107;51.198;6.824;2023-05-12T13:14:02;-21888.41;;;21.99;64.36
19890;BME280;10107;51.198;6.824;2023-05-12T13:18:04;-21885.16;;;21.86;64.91
19890;BME280;10107;51.198;6.824;2023-05-12T13:22:07;-21877.34;;;21.55;67.82
19890;BME280;10107;51.198;6.824;2023-05-12T13:26:09;-21878.78;;;21.61;67.58
19890;BME280;10107;51.198;6.824;2023-05-12T13:30:18;-21875.53;;;21.48;67.61
19890;BME280;10107;51.198;6.824;2023-05-12T13:34:21;-21875.53;;;21.48;67.98
19890;BME280;10107;51.198;6.824;2023-05-12T13:38:24;-21879.94;;;21.65;65.64
19890;BME280;10107;51.198;6.824;2023-05-12T13:42:26;-21886.31;;;21.90;67.08
19890;BME280;10107;51.198;6.824;2023-05-12T13:46:28;-21890.09;;;22.05;64.11
19890;BME280;10107;51.198;6.824;2023-05-12T13:50:29;-21892.03;;;22.13;62.54
19890;BME280;10107;51.198;6.824;2023-05-12T13:54:33;-21887.09;;;21.93;63.17
19890;BME280;10107;51.198;6.824;2023-05-12T13:58:35;-21886.44;;;21.91;64.28
19890;BME280;10107;51.198;6.824;2023-05-12T14:02:37;-21884.75;;;21.84;65.25
19890;BME280;10107;51.198;6.824;2023-05-12T14:06:39;-21876.44;;;21.51;67.05
19890;BME280;10107;51.198;6.824;2023-05-12T14:10:42;-21869.94;;;21.26;70.55
19890;BME280;10107;51.198;6.824;2023-05-12T14:14:44;-21873.44;;;21.40;69.35
19890;BME280;10107;51.198;6.824;2023-05-12T14:18:49;-21875.28;;;21.47;69.01
19890;BME280;10107;51.198;6.824;2023-05-12T14:22:51;-21876.44;;;21.51;70.08
19890;BME280;10107;51.198;6.824;2023-05-12T14:26:54;-21876.97;;;21.53;69.52
19890;BME280;10107;51.198;6.824;2023-05-12T14:30:55;-21885.16;;;21.86;69.93
19890;BME280;10107;51.198;6.824;2023-05-12T14:34:57;-21886.31;;;21.90;68.73
19890;BME280;10107;51.198;6.824;2023-05-12T14:38:58;-21889.56;;;22.03;68.34
19890;BME280;10107;51.198;6.824;2023-05-12T14:43:02;-21888.78;;;22.00;67.15
19890;BME280;10107;51.198;6.824;2023-05-12T14:47:04;-21888.41;;;21.99;68.16
19890;BME280;10107;51.198;6.824;2023-05-12T14:51:07;-21882.94;;;21.77;67.68
19890;BME280;10107;51.198;6.824;2023-05-12T14:55:09;-21879.19;;;21.62;68.45
19890;BME280;10107;51.198;6.824;2023-05-12T14:59:14;-21880.75;;;21.68;68.78
19890;BME280;10107;51.198;6.824;2023-05-12T15:03:15;-21878.41;;;21.59;70.05
19890;BME280;10107;51.198;6.824;2023-05-12T15:07:18;-21871.38;;;21.31;67.93
19890;BME280;10107;51.198;6.824;2023-05-12T15:11:21;-21873.84;;;21.41;63.20
19890;BME280;10107;51.198;6.824;2023-05-12T15:15:24;-21880.09;;;21.66;59.72
19890;BME280;10107;51.198;6.824;2023-05-12T15:19:26;-21875.66;;;21.48;60.19
19890;BME280;10107;51.198;6.824;2023-05-12T15:23:28;-21860.97;;;20.90;61.16
19890;BME280;10107;51.198;6.824;2023-05-12T15:27:31;-21847.41;;;20.37;63.17
19890;BME280;10107;51.198;6.824;2023-05-12T15:31:34;-21828.91;;;19.64;66.86
19890;BME280;10107;51.198;6.824;2023-05-12T15:35:38;-21811.81;;;18.97;70.78
19890;BME280;10107;51.198;6.824;2023-05-12T15:39:39;-21804.09;;;18.67;68.92
19890;BME280;10107;51.198;6.824;2023-05-12T15:43:41;-21801.47;;;18.56;71.24
19890;BME280;10107;51.198;6.824;2023-05-12T15:47:44;-21798.34;;;18.44;67.56
19890;BME280;10107;51.198;6.824;2023-05-12T15:51:46;-21796.00;;;18.35;68.85
19890;BME280;10107;51.198;6.824;2023-05-12T15:55:48;-21794.16;;;18.28;69.98
19890;BME280;10107;51.198;6.824;2023-05-12T15:59:55;-21789.31;;;18.09;74.01
19890;BME280;10107;51.198;6.824;2023-05-12T16:03:58;-21785.53;;;17.94;74.09
19890;BME280;10107;51.198;6.824;2023-05-12T16:08:00;-21780.53;;;17.74;76.88
19890;BME280;10107;51.198;6.824;2023-05-12T16:12:01;-21786.03;;;17.96;80.89
19890;BME280;10107;51.198;6.824;2023-05-12T16:16:04;-21792.84;;;18.23;82.59
19890;BME280;10107;51.198;6.824;2023-05-12T16:20:08;-21797.56;;;18.41;85.10
19890;BME280;10107;51.198;6.824;2023-05-12T16:24:10;-21801.59;;;18.57;84.05
19890;BME280;10107;51.198;6.824;2023-05-12T16:28:12;-21806.56;;;18.76;84.16
19890;BME280;10107;51.198;6.824;2023-05-12T16:32:13;-21808.16;;;18.83;80.25
19890;BME280;10107;51.198;6.824;2023-05-12T16:36:17;-21809.59;;;18.88;85.58
19890;BME280;10107;51.198;6.824;2023-05-12T16:40:19;-21809.84;;;18.89;83.55
19890;BME280;10107;51.198;6.824;2023-05-12T16:44:20;-21808.00;;;18.82;79.67
19890;BME280;10107;51.198;6.824;2023-05-12T16:48:22;-21806.84;;;18.77;83.34
19890;BME280;10107;51.198;6.824;2023-05-12T16:52:25;-21804.63;;;18.69;82.79
19890;BME280;10107;51.198;6.824;2023-05-12T16:56:27;-21801.47;;;18.56;80.13
19890;BME280;10107;51.198;6.824;2023-05-12T17:00:29;-21801.47;;;18.56;79.45
19890;BME280;10107;51.198;6.824;2023-05-12T17:04:30;-21802.41;;;18.60;80.57
19890;BME280;10107;51.198;6.824;2023-05-12T17:08:33;-21804.22;;;18.67;82.30
19890;BME280;10107;51.198;6.824;2023-05-12T17:12:35;-21800.97;;;18.54;82.19
19890;BME280;10107;51.198;6.824;2023-05-12T17:16:37;-21796.78;;;18.38;85.75
19890;BME280;10107;51.198;6.824;2023-05-12T17:20:39;-21791.41;;;18.17;87.70
19890;BME280;10107;51.198;6.824;2023-05-12T17:24:42;-21787.63;;;18.02;88.43
19890;BME280;10107;51.198;6.824;2023-05-12T17:28:44;-21783.03;;;17.84;87.19
19890;BME280;10107;51.198;6.824;2023-05-12T17:32:46;-21774.78;;;17.52;82.83
19890;BME280;10107;51.198;6.824;2023-05-12T17:36:47;-21771.13;;;17.37;83.13
19890;BME280;10107;51.198;6.824;2023-05-12T17:40:51;-21772.03;;;17.41;82.79
19890;BME280;10107;51.198;6.824;2023-05-12T17:44:53;-21775.84;;;17.56;82.87
19890;BME280;10107;51.198;6.824;2023-05-12T17:48:54;-21778.44;;;17.66;82.21
19890;BME280;10107;51.198;6.824;2023-05-12T17:52:56;-21779.09;;;17.69;82.18
19890;BME280;10107;51.198;6.824;2023-05-12T17:56:59;-21778.97;;;17.68;82.09
19890;BME280;10107;51.198;6.824;2023-05-12T18:01:05;-21776.22;;;17.57;82.32
19890;BME280;10107;51.198;6.824;2023-05-12T18:05:08;-21773.88;;;17.48;83.37
19890;BME280;10107;51.198;6.824;2023-05-12T18:09:12;-21771.00;;;17.37;84.87
19890;BME280;10107;51.198;6.824;2023-05-12T18:13:16;-21766.28;;;17.18;88.06
19890;BME280;10107;51.198;6.824;2023-05-12T18:17:17;-21763.13;;;17.06;90.86
19890;BME280;10107;51.198;6.824;2023-05-12T18:21:19;-21758.81;;;16.89;93.07
19890;BME280;10107;51.198;6.824;2023-05-12T18:25:21;-21755.25;;;16.75;94.30
19890;BME280;10107;51.198;6.824;2023-05-12T18:29:24;-21751.47;;;16.60;95.91
19890;BME280;10107;51.198;6.824;2023-05-12T18:33:25;-21747.78;;;16.46;98.24
19890;BME280;10107;51.198;6.824;2023-05-12T18:37:27;-21744.25;;;16.32;99.81
19890;BME280;10107;51.198;6.824;2023-05-12T18:41:29;-21740.84;;;16.19;100.00
19890;BME280;10107;51.198;6.824;2023-05-12T18:45:32;-21737.56;;;16.06;100.00
19890;BME280;10107;51.198;6.824;2023-05-12T18:49:36;-21734.66;;;15.95;100.00
19890;BME280;10107;51.198;6.824;2023-05-12T18:53:37;-21732.16;;;15.85;100.00
19890;BME280;10107;51.198;6.824;2023-05-12T18:57:39;-21728.75;;;15.72;100.00
19890;BME280;10107;51.198;6.824;2023-05-12T19:01:42;-21725.72;;;15.60;100.00
19890;BME280;10107;51.198;6.824;2023-05-12T19:05:44;-21723.88;;;15.53;100.00
19890;BME280;10107;51.198;6.824;2023-05-12T19:09:47;-21721.00;;;15.41;100.00
19890;BME280;10107;51.198;6.824;2023-05-12T19:13:50;-21716.41;;;15.23;100.00
19890;BME280;10107;51.198;6.824;2023-05-12T19:17:53;-21712.59;;;15.09;100.00
19890;BME280;10107;51.198;6.824;2023-05-12T19:21:56;-21709.03;;;14.95;100.00
19890;BME280;10107;51.198;6.824;2023-05-12T19:25:59;-21706.53;;;14.85;100.00
19890;BME280;10107;51.198;6.824;2023-05-12T19:30:01;-21703.91;;;14.75;100.00
19890;BME280;10107;51.198;6.824;2023-05-12T19:34:05;-21701.41;;;14.65;100.00
19890;BME280;10107;51.198;6.824;2023-05-12T19:38:08;-21699.44;;;14.57;100.00
19890;BME280;10107;51.198;6.824;2023-05-12T19:42:17;-21697.19;;;14.49;100.00
19890;BME280;10107;51.198;6.824;2023-05-12T19:46:35;-21695.34;;;14.41;100.00
19890;BME280;10107;51.198;6.824;2023-05-12T19:50:38;-21695.22;;;14.41;100.00
19890;BME280;10107;51.198;6.824;2023-05-12T19:54:40;-21692.72;;;14.31;100.00
19890;BME280;10107;51.198;6.824;2023-05-12T19:58:42;-21689.56;;;14.19;100.00
19890;BME280;10107;51.198;6.824;2023-05-12T20:02:44;-21686.53;;;14.07;100.00
19890;BME280;10107;51.198;6.824;2023-05-12T20:06:47;-21683.50;;;13.95;100.00
19890;BME280;10107;51.198;6.824;2023-05-12T20:10:48;-21680.72;;;13.84;100.00
19890;BME280;10107;51.198;6.824;2023-05-12T20:14:50;-21678.09;;;13.74;100.00
19890;BME280;10107;51.198;6.824;2023-05-12T20:18:52;-21675.06;;;13.62;100.00
19890;BME280;10107;51.198;6.824;2023-05-12T20:22:55;-21672.16;;;13.51;100.00
19890;BME280;10107;51.198;6.824;2023-05-12T20:27:03;-21669.94;;;13.42;100.00
19890;BME280;10107;51.198;6.824;2023-05-12T20:31:05;-21668.88;;;13.38;100.00
19890;BME280;10107;51.198;6.824;2023-05-12T20:35:09;-21666.63;;;13.30;100.00
19890;BME280;10107;51.198;6.824;2023-05-12T20:39:13;-21665.97;;;13.27;100.00
19890;BME280;10107;51.198;6.824;2023-05-12T20:43:15;-21663.72;;;13.18;100.00
19890;BME280;10107;51.198;6.824;2023-05-12T20:47:17;-21662.28;;;13.13;100.00
19890;BME280;10107;51.198;6.824;2023-05-12T20:51:19;-21661.22;;;13.08;100.00
19890;BME280;10107;51.198;6.824;2023-05-12T20:55:22;-21659.75;;;13.03;100.00
19890;BME280;10107;51.198;6.824;2023-05-12T20:59:25;-21658.44;;;12.98;100.00
19890;BME280;10107;51.198;6.824;2023-05-12T21:03:27;-21657.25;;;12.93;100.00